This is the latest recevied weather packets stored in our database for station/object KD8YBJ. If no packets are shown the sender has not sent any weather packets the latest 10 day(s).
| Time | Temp. | Humidity | Pressure | Rain* | Wind** | Luminosity | Snow |
|---|---|---|---|---|---|---|---|
| 1777615216 | 4.44° C | 72% | 1015.1 hPa | 0 mm | - | 0 W/m² | - |
| 1777606818 | 4.44° C | 80% | 1015.2 hPa | 0 mm | - | 0 W/m² | - |
| 1777605616 | 5° C | 80% | 1015.4 hPa | 0 mm | - | 0 W/m² | - |
| 1777605036 | 5° C | 79% | 1015.2 hPa | 0 mm | - | 0 W/m² | - |
| 1777604436 | 5° C | 79% | 1015.2 hPa | 0 mm | - | 0 W/m² | - |
| 1777600217 | 6.11° C | 73% | 1015.3 hPa | 0 mm | - | 0 W/m² | - |
| 1777599018 | 6.11° C | 69% | 1015.1 hPa | 0 mm | - | 0 W/m² | - |
| 1777596618 | 6.67° C | 68% | 1015 hPa | 0 mm | - | 1 W/m² | - |
| 1777591237 | 7.22° C | 63% | 1015 hPa | 0 mm | - | 79 W/m² | - |
| 1777588817 | 7.22° C | 58% | 1015.4 hPa | 0 mm | - | 107 W/m² | - |
| 1777588218 | 7.78° C | 57% | 1015.4 hPa | 0 mm | - | 113 W/m² | - |
| 1777585520 | 7.78° C | 58% | 1015.4 hPa | 0 mm | - | 224 W/m² | - |
| 1777584916 | 7.78° C | 59% | 1015.6 hPa | 0 mm | - | 205 W/m² | - |
| 1777583116 | 7.78° C | 59% | 1015.6 hPa | 0 mm | - | 408 W/m² | - |
| 1777581916 | 7.78° C | 62% | 1015.8 hPa | 0 mm | - | 355 W/m² | - |
| 1777576538 | 9.44° C | 62% | 1015.6 hPa | 0 mm | - | 842 W/m² | - |
| 1777572316 | 8.89° C | 65% | 1015.8 hPa | 0 mm | - | 913 W/m² | - |
| 1777571716 | 8.89° C | 61% | 1015.9 hPa | 0 mm | - | 915 W/m² | - |
| 1777570518 | 8.89° C | 61% | 1015.9 hPa | 0 mm | - | 912 W/m² | - |
| 1777568717 | 8.33° C | 65% | 1015.7 hPa | 0 mm | - | 896 W/m² | - |
| 1777566917 | 8.33° C | 64% | 1015.7 hPa | 0 mm | - | 864 W/m² | - |
| 1777560316 | 7.78° C | 63% | 1015.7 hPa | 0 mm | - | 282 W/m² | - |
| 1777559716 | 7.78° C | 66% | 1016.1 hPa | 0 mm | - | 172 W/m² | - |
| 1777556749 | 6.67° C | 76% | 1015.5 hPa | 0 mm | - | 240 W/m² | - |
| 1777556120 | 6.67° C | 78% | 1015.6 hPa | 0 mm | - | 153 W/m² | - |
* Rain latest hour (hover to see other rain measurements)
** Current wind speed in m/s (hover to see current wind gust speed)